sensor_id;sensor_type;location;lat;lon;timestamp;P1;durP1;ratioP1;P2;durP2;ratioP2
24206;SDS011;12351;52.284;9.160;2022-09-03T00:00:59;2.17;;;0.70;;
24206;SDS011;12351;52.284;9.160;2022-09-03T00:03:50;1.13;;;0.50;;
24206;SDS011;12351;52.284;9.160;2022-09-03T00:06:39;0.70;;;0.50;;
24206;SDS011;12351;52.284;9.160;2022-09-03T00:09:29;2.17;;;0.60;;
24206;SDS011;12351;52.284;9.160;2022-09-03T00:15:09;1.87;;;1.00;;
24206;SDS011;12351;52.284;9.160;2022-09-03T00:20:50;0.70;;;0.70;;
24206;SDS011;12351;52.284;9.160;2022-09-03T00:23:39;1.77;;;0.60;;
24206;SDS011;12351;52.284;9.160;2022-09-03T00:26:28;1.70;;;0.70;;
24206;SDS011;12351;52.284;9.160;2022-09-03T00:29:22;3.33;;;0.73;;
24206;SDS011;12351;52.284;9.160;2022-09-03T00:32:10;1.77;;;0.80;;
24206;SDS011;12351;52.284;9.160;2022-09-03T00:35:00;1.10;;;0.70;;
24206;SDS011;12351;52.284;9.160;2022-09-03T00:37:47;2.17;;;0.73;;
24206;SDS011;12351;52.284;9.160;2022-09-03T00:57:20;0.80;;;0.60;;
24206;SDS011;12351;52.284;9.160;2022-09-03T01:05:52;1.63;;;0.60;;
24206;SDS011;12351;52.284;9.160;2022-09-03T01:36:50;1.27;;;0.77;;
24206;SDS011;12351;52.284;9.160;2022-09-03T01:39:40;0.97;;;0.80;;
24206;SDS011;12351;52.284;9.160;2022-09-03T01:59:19;1.13;;;0.80;;
24206;SDS011;12351;52.284;9.160;2022-09-03T02:02:09;3.52;;;1.07;;
24206;SDS011;12351;52.284;9.160;2022-09-03T02:04:59;2.80;;;0.80;;
24206;SDS011;12351;52.284;9.160;2022-09-03T02:10:41;3.00;;;0.63;;
24206;SDS011;12351;52.284;9.160;2022-09-03T02:16:21;2.87;;;0.70;;
24206;SDS011;12351;52.284;9.160;2022-09-03T02:19:11;1.17;;;0.70;;
24206;SDS011;12351;52.284;9.160;2022-09-03T02:21:59;2.00;;;0.70;;
24206;SDS011;12351;52.284;9.160;2022-09-03T02:24:47;1.90;;;0.77;;
24206;SDS011;12351;52.284;9.160;2022-09-03T02:27:34;0.93;;;0.80;;
24206;SDS011;12351;52.284;9.160;2022-09-03T02:30:23;1.17;;;0.80;;
24206;SDS011;12351;52.284;9.160;2022-09-03T02:33:10;2.63;;;0.73;;
24206;SDS011;12351;52.284;9.160;2022-09-03T02:35:57;1.40;;;0.80;;
24206;SDS011;12351;52.284;9.160;2022-09-03T02:38:44;0.80;;;0.80;;
24206;SDS011;12351;52.284;9.160;2022-09-03T02:41:31;1.00;;;0.60;;
24206;SDS011;12351;52.284;9.160;2022-09-03T02:44:22;1.13;;;0.70;;
24206;SDS011;12351;52.284;9.160;2022-09-03T02:47:09;0.70;;;0.70;;
24206;SDS011;12351;52.284;9.160;2022-09-03T02:49:56;3.03;;;0.70;;
24206;SDS011;12351;52.284;9.160;2022-09-03T02:52:43;1.00;;;0.70;;
24206;SDS011;12351;52.284;9.160;2022-09-03T02:55:30;1.93;;;0.80;;
24206;SDS011;12351;52.284;9.160;2022-09-03T02:58:17;1.73;;;0.87;;
24206;SDS011;12351;52.284;9.160;2022-09-03T03:01:04;1.27;;;0.80;;
24206;SDS011;12351;52.284;9.160;2022-09-03T03:03:52;2.87;;;0.90;;
24206;SDS011;12351;52.284;9.160;2022-09-03T03:06:38;0.97;;;0.50;;
24206;SDS011;12351;52.284;9.160;2022-09-03T03:09:25;0.90;;;0.73;;
24206;SDS011;12351;52.284;9.160;2022-09-03T03:12:12;1.03;;;0.83;;
24206;SDS011;12351;52.284;9.160;2022-09-03T03:15:01;1.97;;;0.70;;
24206;SDS011;12351;52.284;9.160;2022-09-03T03:17:47;1.27;;;0.70;;
24206;SDS011;12351;52.284;9.160;2022-09-03T03:20:34;2.80;;;0.80;;
24206;SDS011;12351;52.284;9.160;2022-09-03T03:23:21;1.30;;;0.60;;
24206;SDS011;12351;52.284;9.160;2022-09-03T03:26:09;1.10;;;0.70;;
24206;SDS011;12351;52.284;9.160;2022-09-03T03:28:58;1.80;;;0.77;;
24206;SDS011;12351;52.284;9.160;2022-09-03T03:31:47;0.77;;;0.70;;
24206;SDS011;12351;52.284;9.160;2022-09-03T03:34:34;2.73;;;0.80;;
24206;SDS011;12351;52.284;9.160;2022-09-03T03:37:22;1.33;;;0.80;;
24206;SDS011;12351;52.284;9.160;2022-09-03T03:40:09;2.13;;;0.80;;
24206;SDS011;12351;52.284;9.160;2022-09-03T03:42:56;1.13;;;0.90;;
24206;SDS011;12351;52.284;9.160;2022-09-03T03:45:43;2.37;;;0.90;;
24206;SDS011;12351;52.284;9.160;2022-09-03T03:48:31;1.33;;;0.80;;
24206;SDS011;12351;52.284;9.160;2022-09-03T03:51:19;2.60;;;0.80;;
24206;SDS011;12351;52.284;9.160;2022-09-03T03:54:06;0.80;;;0.70;;
24206;SDS011;12351;52.284;9.160;2022-09-03T03:56:53;0.80;;;0.80;;
24206;SDS011;12351;52.284;9.160;2022-09-03T03:59:40;2.80;;;0.70;;
24206;SDS011;12351;52.284;9.160;2022-09-03T04:02:26;0.70;;;0.67;;
24206;SDS011;12351;52.284;9.160;2022-09-03T04:05:13;1.83;;;0.80;;
24206;SDS011;12351;52.284;9.160;2022-09-03T04:08:01;1.57;;;0.80;;
24206;SDS011;12351;52.284;9.160;2022-09-03T04:10:48;1.67;;;0.90;;
24206;SDS011;12351;52.284;9.160;2022-09-03T04:13:36;1.53;;;0.80;;
24206;SDS011;12351;52.284;9.160;2022-09-03T04:16:25;2.93;;;0.83;;
24206;SDS011;12351;52.284;9.160;2022-09-03T04:19:12;0.77;;;0.70;;
24206;SDS011;12351;52.284;9.160;2022-09-03T04:21:59;1.55;;;0.90;;
24206;SDS011;12351;52.284;9.160;2022-09-03T04:24:47;3.20;;;0.80;;
24206;SDS011;12351;52.284;9.160;2022-09-03T04:27:34;4.28;;;1.02;;
24206;SDS011;12351;52.284;9.160;2022-09-03T04:30:21;2.40;;;1.07;;
24206;SDS011;12351;52.284;9.160;2022-09-03T04:33:08;1.80;;;0.80;;
24206;SDS011;12351;52.284;9.160;2022-09-03T04:38:46;1.60;;;0.73;;
24206;SDS011;12351;52.284;9.160;2022-09-03T04:41:35;4.53;;;0.82;;
24206;SDS011;12351;52.284;9.160;2022-09-03T04:44:22;1.98;;;0.82;;
24206;SDS011;12351;52.284;9.160;2022-09-03T04:47:09;2.30;;;0.73;;
24206;SDS011;12351;52.284;9.160;2022-09-03T04:49:55;3.10;;;0.80;;
24206;SDS011;12351;52.284;9.160;2022-09-03T04:52:42;0.93;;;0.90;;
24206;SDS011;12351;52.284;9.160;2022-09-03T04:58:19;1.90;;;0.90;;
24206;SDS011;12351;52.284;9.160;2022-09-03T05:01:06;1.03;;;0.80;;
24206;SDS011;12351;52.284;9.160;2022-09-03T05:03:54;1.37;;;0.80;;
24206;SDS011;12351;52.284;9.160;2022-09-03T05:06:41;3.10;;;0.78;;
24206;SDS011;12351;52.284;9.160;2022-09-03T05:09:29;0.97;;;0.80;;
24206;SDS011;12351;52.284;9.160;2022-09-03T05:12:16;5.13;;;0.80;;
24206;SDS011;12351;52.284;9.160;2022-09-03T05:15:05;3.25;;;0.80;;
24206;SDS011;12351;52.284;9.160;2022-09-03T05:20:41;1.40;;;0.97;;
24206;SDS011;12351;52.284;9.160;2022-09-03T05:23:28;0.80;;;0.70;;
24206;SDS011;12351;52.284;9.160;2022-09-03T05:26:17;2.22;;;1.02;;
24206;SDS011;12351;52.284;9.160;2022-09-03T05:29:06;2.12;;;1.00;;
24206;SDS011;12351;52.284;9.160;2022-09-03T05:31:53;2.02;;;0.93;;
24206;SDS011;12351;52.284;9.160;2022-09-03T05:34:40;2.95;;;0.95;;
24206;SDS011;12351;52.284;9.160;2022-09-03T05:37:27;1.77;;;0.73;;
24206;SDS011;12351;52.284;9.160;2022-09-03T05:40:14;2.57;;;0.80;;
24206;SDS011;12351;52.284;9.160;2022-09-03T05:43:01;1.87;;;0.98;;
24206;SDS011;12351;52.284;9.160;2022-09-03T05:45:49;1.72;;;0.90;;
24206;SDS011;12351;52.284;9.160;2022-09-03T05:48:37;2.60;;;0.90;;
24206;SDS011;12351;52.284;9.160;2022-09-03T05:51:24;1.00;;;0.80;;
24206;SDS011;12351;52.284;9.160;2022-09-03T05:54:11;0.97;;;0.80;;
24206;SDS011;12351;52.284;9.160;2022-09-03T05:56:58;1.13;;;0.80;;
24206;SDS011;12351;52.284;9.160;2022-09-03T05:59:45;4.97;;;1.00;;
24206;SDS011;12351;52.284;9.160;2022-09-03T06:02:31;3.67;;;0.90;;
24206;SDS011;12351;52.284;9.160;2022-09-03T06:05:19;2.20;;;0.90;;
24206;SDS011;12351;52.284;9.160;2022-09-03T06:08:06;2.47;;;0.87;;
24206;SDS011;12351;52.284;9.160;2022-09-03T06:10:56;2.13;;;0.80;;
24206;SDS011;12351;52.284;9.160;2022-09-03T06:13:43;2.30;;;0.80;;
24206;SDS011;12351;52.284;9.160;2022-09-03T06:16:31;3.10;;;0.90;;
24206;SDS011;12351;52.284;9.160;2022-09-03T06:19:19;1.03;;;0.73;;
24206;SDS011;12351;52.284;9.160;2022-09-03T06:22:06;1.43;;;0.80;;
24206;SDS011;12351;52.284;9.160;2022-09-03T06:24:53;1.87;;;0.80;;
24206;SDS011;12351;52.284;9.160;2022-09-03T06:27:40;1.27;;;0.80;;
24206;SDS011;12351;52.284;9.160;2022-09-03T06:30:27;2.67;;;1.00;;
24206;SDS011;12351;52.284;9.160;2022-09-03T06:33:14;0.90;;;0.70;;
24206;SDS011;12351;52.284;9.160;2022-09-03T06:36:03;3.53;;;0.90;;
24206;SDS011;12351;52.284;9.160;2022-09-03T06:38:53;0.90;;;0.77;;
24206;SDS011;12351;52.284;9.160;2022-09-03T06:41:41;2.10;;;1.00;;
24206;SDS011;12351;52.284;9.160;2022-09-03T06:44:29;1.07;;;0.80;;
24206;SDS011;12351;52.284;9.160;2022-09-03T06:47:16;3.90;;;1.00;;
24206;SDS011;12351;52.284;9.160;2022-09-03T06:50:03;1.00;;;0.90;;
24206;SDS011;12351;52.284;9.160;2022-09-03T06:52:52;1.73;;;0.70;;
24206;SDS011;12351;52.284;9.160;2022-09-03T06:55:39;1.53;;;0.70;;
24206;SDS011;12351;52.284;9.160;2022-09-03T06:58:28;3.80;;;1.10;;
24206;SDS011;12351;52.284;9.160;2022-09-03T07:01:17;1.60;;;0.80;;
24206;SDS011;12351;52.284;9.160;2022-09-03T07:04:05;1.50;;;1.00;;
24206;SDS011;12351;52.284;9.160;2022-09-03T07:06:54;3.17;;;0.97;;
24206;SDS011;12351;52.284;9.160;2022-09-03T07:09:40;1.60;;;0.90;;
24206;SDS011;12351;52.284;9.160;2022-09-03T07:12:27;1.20;;;0.80;;
24206;SDS011;12351;52.284;9.160;2022-09-03T07:15:16;3.47;;;0.73;;
24206;SDS011;12351;52.284;9.160;2022-09-03T07:18:03;3.47;;;1.07;;
24206;SDS011;12351;52.284;9.160;2022-09-03T07:20:50;2.60;;;1.03;;
24206;SDS011;12351;52.284;9.160;2022-09-03T07:23:37;2.40;;;0.80;;
24206;SDS011;12351;52.284;9.160;2022-09-03T07:26:25;4.33;;;0.90;;
24206;SDS011;12351;52.284;9.160;2022-09-03T07:29:14;3.80;;;0.80;;
24206;SDS011;12351;52.284;9.160;2022-09-03T07:32:02;2.70;;;1.00;;
24206;SDS011;12351;52.284;9.160;2022-09-03T07:34:49;4.40;;;0.90;;
24206;SDS011;12351;52.284;9.160;2022-09-03T07:37:36;1.77;;;0.87;;
24206;SDS011;12351;52.284;9.160;2022-09-03T07:40:26;2.13;;;0.97;;
24206;SDS011;12351;52.284;9.160;2022-09-03T07:43:13;7.50;;;0.87;;
24206;SDS011;12351;52.284;9.160;2022-09-03T07:46:02;2.17;;;0.70;;
24206;SDS011;12351;52.284;9.160;2022-09-03T07:48:49;5.33;;;1.00;;
24206;SDS011;12351;52.284;9.160;2022-09-03T07:51:38;2.37;;;0.80;;
24206;SDS011;12351;52.284;9.160;2022-09-03T07:54:25;2.13;;;0.90;;
24206;SDS011;12351;52.284;9.160;2022-09-03T07:57:12;3.63;;;0.80;;
24206;SDS011;12351;52.284;9.160;2022-09-03T07:59:58;4.60;;;1.10;;
24206;SDS011;12351;52.284;9.160;2022-09-03T08:02:45;4.47;;;0.97;;
24206;SDS011;12351;52.284;9.160;2022-09-03T08:05:33;1.03;;;0.93;;
24206;SDS011;12351;52.284;9.160;2022-09-03T08:08:21;1.50;;;1.10;;
24206;SDS011;12351;52.284;9.160;2022-09-03T08:11:09;1.97;;;0.80;;
24206;SDS011;12351;52.284;9.160;2022-09-03T08:13:58;2.47;;;0.97;;
24206;SDS011;12351;52.284;9.160;2022-09-03T08:16:47;1.20;;;0.80;;
24206;SDS011;12351;52.284;9.160;2022-09-03T08:19:34;2.20;;;1.00;;
24206;SDS011;12351;52.284;9.160;2022-09-03T08:22:21;1.53;;;0.90;;
24206;SDS011;12351;52.284;9.160;2022-09-03T08:25:09;1.53;;;0.80;;
24206;SDS011;12351;52.284;9.160;2022-09-03T08:27:57;0.90;;;0.77;;
24206;SDS011;12351;52.284;9.160;2022-09-03T08:30:44;2.23;;;0.90;;
24206;SDS011;12351;52.284;9.160;2022-09-03T08:33:31;2.80;;;0.80;;
24206;SDS011;12351;52.284;9.160;2022-09-03T08:36:20;3.33;;;1.03;;
24206;SDS011;12351;52.284;9.160;2022-09-03T08:39:10;2.67;;;0.90;;
24206;SDS011;12351;52.284;9.160;2022-09-03T08:47:40;1.67;;;0.93;;
24206;SDS011;12351;52.284;9.160;2022-09-03T08:50:30;1.80;;;0.90;;
24206;SDS011;12351;52.284;9.160;2022-09-03T08:53:20;3.17;;;0.90;;
24206;SDS011;12351;52.284;9.160;2022-09-03T08:56:11;2.07;;;0.90;;
24206;SDS011;12351;52.284;9.160;2022-09-03T08:58:59;2.73;;;0.73;;
24206;SDS011;12351;52.284;9.160;2022-09-03T09:07:30;4.30;;;0.97;;
24206;SDS011;12351;52.284;9.160;2022-09-03T09:10:20;5.43;;;0.80;;
24206;SDS011;12351;52.284;9.160;2022-09-03T09:21:41;1.00;;;0.90;;
24206;SDS011;12351;52.284;9.160;2022-09-03T09:27:19;3.40;;;1.10;;
24206;SDS011;12351;52.284;9.160;2022-09-03T09:30:07;4.63;;;1.00;;
24206;SDS011;12351;52.284;9.160;2022-09-03T09:32:54;5.97;;;1.20;;
24206;SDS011;12351;52.284;9.160;2022-09-03T09:35:41;6.63;;;1.20;;
24206;SDS011;12351;52.284;9.160;2022-09-03T09:38:30;4.60;;;1.10;;
24206;SDS011;12351;52.284;9.160;2022-09-03T09:41:19;3.43;;;1.10;;
24206;SDS011;12351;52.284;9.160;2022-09-03T09:44:17;3.43;;;1.00;;
24206;SDS011;12351;52.284;9.160;2022-09-03T09:49:52;8.83;;;1.13;;
24206;SDS011;12351;52.284;9.160;2022-09-03T09:52:39;4.73;;;1.00;;
24206;SDS011;12351;52.284;9.160;2022-09-03T09:55:28;2.17;;;1.07;;
24206;SDS011;12351;52.284;9.160;2022-09-03T09:58:18;1.20;;;1.00;;
24206;SDS011;12351;52.284;9.160;2022-09-03T10:01:10;6.13;;;1.20;;
24206;SDS011;12351;52.284;9.160;2022-09-03T10:03:58;6.33;;;0.90;;
24206;SDS011;12351;52.284;9.160;2022-09-03T10:06:52;2.57;;;1.07;;
24206;SDS011;12351;52.284;9.160;2022-09-03T10:09:37;8.17;;;1.23;;
24206;SDS011;12351;52.284;9.160;2022-09-03T10:15:18;1.50;;;0.80;;
24206;SDS011;12351;52.284;9.160;2022-09-03T10:21:00;3.10;;;1.00;;
24206;SDS011;12351;52.284;9.160;2022-09-03T10:26:37;2.90;;;1.00;;
24206;SDS011;12351;52.284;9.160;2022-09-03T10:29:24;3.33;;;1.00;;
24206;SDS011;12351;52.284;9.160;2022-09-03T10:46:26;3.37;;;1.20;;
24206;SDS011;12351;52.284;9.160;2022-09-03T10:54:40;4.10;;;1.00;;
24206;SDS011;12351;52.284;9.160;2022-09-03T10:57:31;2.17;;;1.00;;
24206;SDS011;12351;52.284;9.160;2022-09-03T11:00:17;1.87;;;0.83;;
24206;SDS011;12351;52.284;9.160;2022-09-03T11:08:50;2.50;;;1.03;;
24206;SDS011;12351;52.284;9.160;2022-09-03T11:14:30;2.20;;;1.20;;
24206;SDS011;12351;52.284;9.160;2022-09-03T11:17:21;4.20;;;1.43;;
24206;SDS011;12351;52.284;9.160;2022-09-03T11:20:10;1.10;;;1.00;;
24206;SDS011;12351;52.284;9.160;2022-09-03T11:22:59;3.63;;;1.17;;
24206;SDS011;12351;52.284;9.160;2022-09-03T11:25:50;2.30;;;1.20;;
24206;SDS011;12351;52.284;9.160;2022-09-03T11:37:03;2.20;;;1.17;;
24206;SDS011;12351;52.284;9.160;2022-09-03T11:42:42;2.00;;;1.00;;
24206;SDS011;12351;52.284;9.160;2022-09-03T11:50:58;1.47;;;0.90;;
24206;SDS011;12351;52.284;9.160;2022-09-03T11:56:34;6.50;;;0.90;;
24206;SDS011;12351;52.284;9.160;2022-09-03T11:59:22;1.57;;;1.27;;
24206;SDS011;12351;52.284;9.160;2022-09-03T12:19:15;3.30;;;1.20;;
24206;SDS011;12351;52.284;9.160;2022-09-03T12:22:02;2.37;;;1.80;;
24206;SDS011;12351;52.284;9.160;2022-09-03T12:24:50;2.53;;;1.83;;
24206;SDS011;12351;52.284;9.160;2022-09-03T12:27:37;1.77;;;0.83;;
24206;SDS011;12351;52.284;9.160;2022-09-03T12:30:27;3.73;;;1.00;;
24206;SDS011;12351;52.284;9.160;2022-09-03T12:33:16;1.53;;;1.07;;
24206;SDS011;12351;52.284;9.160;2022-09-03T12:36:04;3.43;;;1.10;;
24206;SDS011;12351;52.284;9.160;2022-09-03T12:38:54;2.53;;;0.80;;
24206;SDS011;12351;52.284;9.160;2022-09-03T12:44:31;3.80;;;0.80;;
24206;SDS011;12351;52.284;9.160;2022-09-03T12:47:18;2.17;;;0.83;;
24206;SDS011;12351;52.284;9.160;2022-09-03T12:50:09;1.93;;;0.90;;
24206;SDS011;12351;52.284;9.160;2022-09-03T12:52:59;3.43;;;0.90;;
24206;SDS011;12351;52.284;9.160;2022-09-03T12:55:50;1.87;;;0.90;;
24206;SDS011;12351;52.284;9.160;2022-09-03T12:58:43;3.63;;;1.00;;
24206;SDS011;12351;52.284;9.160;2022-09-03T13:01:28;4.20;;;1.00;;
24206;SDS011;12351;52.284;9.160;2022-09-03T13:04:19;1.90;;;1.03;;
24206;SDS011;12351;52.284;9.160;2022-09-03T13:07:10;2.60;;;0.90;;
24206;SDS011;12351;52.284;9.160;2022-09-03T13:09:59;3.77;;;0.80;;
24206;SDS011;12351;52.284;9.160;2022-09-03T13:12:48;3.37;;;1.10;;
24206;SDS011;12351;52.284;9.160;2022-09-03T13:15:36;1.03;;;0.80;;
24206;SDS011;12351;52.284;9.160;2022-09-03T13:18:26;4.27;;;1.07;;
24206;SDS011;12351;52.284;9.160;2022-09-03T13:21:17;0.80;;;0.73;;
24206;SDS011;12351;52.284;9.160;2022-09-03T13:41:11;0.77;;;0.77;;
24206;SDS011;12351;52.284;9.160;2022-09-03T13:44:05;1.80;;;0.80;;
24206;SDS011;12351;52.284;9.160;2022-09-03T13:52:26;1.83;;;1.07;;
24206;SDS011;12351;52.284;9.160;2022-09-03T13:58:05;3.37;;;1.00;;
24206;SDS011;12351;52.284;9.160;2022-09-03T14:03:47;4.87;;;1.00;;
24206;SDS011;12351;52.284;9.160;2022-09-03T14:09:15;1.53;;;0.93;;
24206;SDS011;12351;52.284;9.160;2022-09-03T14:14:54;4.20;;;1.03;;
24206;SDS011;12351;52.284;9.160;2022-09-03T14:26:30;3.73;;;0.97;;
24206;SDS011;12351;52.284;9.160;2022-09-03T14:29:13;2.20;;;0.90;;
24206;SDS011;12351;52.284;9.160;2022-09-03T14:40:15;3.47;;;1.10;;
24206;SDS011;12351;52.284;9.160;2022-09-03T14:48:36;3.07;;;1.07;;
24206;SDS011;12351;52.284;9.160;2022-09-03T14:57:06;5.93;;;1.50;;
24206;SDS011;12351;52.284;9.160;2022-09-03T14:59:56;3.20;;;1.10;;
24206;SDS011;12351;52.284;9.160;2022-09-03T15:05:38;6.70;;;2.43;;
24206;SDS011;12351;52.284;9.160;2022-09-03T15:08:27;5.23;;;1.40;;
24206;SDS011;12351;52.284;9.160;2022-09-03T15:22:36;1.53;;;0.93;;
24206;SDS011;12351;52.284;9.160;2022-09-03T15:28:06;0.80;;;0.80;;
24206;SDS011;12351;52.284;9.160;2022-09-03T15:33:47;1.00;;;0.80;;
24206;SDS011;12351;52.284;9.160;2022-09-03T15:36:37;2.90;;;0.80;;
24206;SDS011;12351;52.284;9.160;2022-09-03T15:39:26;4.40;;;1.10;;
24206;SDS011;12351;52.284;9.160;2022-09-03T15:42:17;1.33;;;0.80;;
24206;SDS011;12351;52.284;9.160;2022-09-03T15:45:07;3.23;;;0.80;;
24206;SDS011;12351;52.284;9.160;2022-09-03T15:47:55;2.93;;;0.83;;
24206;SDS011;12351;52.284;9.160;2022-09-03T15:50:49;2.83;;;1.17;;
24206;SDS011;12351;52.284;9.160;2022-09-03T15:53:38;2.43;;;1.10;;
24206;SDS011;12351;52.284;9.160;2022-09-03T15:56:29;1.23;;;1.00;;
24206;SDS011;12351;52.284;9.160;2022-09-03T15:59:18;5.33;;;1.20;;
24206;SDS011;12351;52.284;9.160;2022-09-03T16:16:26;3.30;;;0.90;;
24206;SDS011;12351;52.284;9.160;2022-09-03T16:22:12;1.90;;;1.10;;
24206;SDS011;12351;52.284;9.160;2022-09-03T16:30:44;2.47;;;0.93;;
24206;SDS011;12351;52.284;9.160;2022-09-03T16:33:32;5.33;;;2.00;;
24206;SDS011;12351;52.284;9.160;2022-09-03T16:59:05;4.67;;;2.70;;
24206;SDS011;12351;52.284;9.160;2022-09-03T17:04:45;7.00;;;6.30;;
24206;SDS011;12351;52.284;9.160;2022-09-03T17:10:26;3.43;;;1.57;;
24206;SDS011;12351;52.284;9.160;2022-09-03T17:18:49;3.30;;;0.83;;
24206;SDS011;12351;52.284;9.160;2022-09-03T17:44:28;2.70;;;1.30;;
24206;SDS011;12351;52.284;9.160;2022-09-03T18:01:10;6.60;;;1.37;;
24206;SDS011;12351;52.284;9.160;2022-09-03T18:09:38;4.87;;;1.30;;
24206;SDS011;12351;52.284;9.160;2022-09-03T18:15:17;4.93;;;1.40;;
24206;SDS011;12351;52.284;9.160;2022-09-03T18:20:55;3.27;;;1.23;;
24206;SDS011;12351;52.284;9.160;2022-09-03T18:26:25;5.53;;;1.63;;
24206;SDS011;12351;52.284;9.160;2022-09-03T18:29:19;8.17;;;1.40;;
24206;SDS011;12351;52.284;9.160;2022-09-03T18:32:06;2.00;;;1.40;;
24206;SDS011;12351;52.284;9.160;2022-09-03T18:34:54;3.70;;;1.40;;
24206;SDS011;12351;52.284;9.160;2022-09-03T18:37:43;2.03;;;1.47;;
24206;SDS011;12351;52.284;9.160;2022-09-03T18:40:35;7.57;;;1.77;;
24206;SDS011;12351;52.284;9.160;2022-09-03T18:49:10;4.90;;;2.07;;
24206;SDS011;12351;52.284;9.160;2022-09-03T18:52:03;1.30;;;1.20;;
24206;SDS011;12351;52.284;9.160;2022-09-03T19:00:33;2.73;;;1.30;;
24206;SDS011;12351;52.284;9.160;2022-09-03T19:14:52;3.27;;;1.20;;
24206;SDS011;12351;52.284;9.160;2022-09-03T19:20:30;3.27;;;1.40;;
24206;SDS011;12351;52.284;9.160;2022-09-03T19:23:20;2.90;;;1.20;;
24206;SDS011;12351;52.284;9.160;2022-09-03T19:29:01;2.13;;;1.40;;
24206;SDS011;12351;52.284;9.160;2022-09-03T19:31:55;3.60;;;1.50;;
24206;SDS011;12351;52.284;9.160;2022-09-03T19:40:31;2.33;;;1.33;;
24206;SDS011;12351;52.284;9.160;2022-09-03T19:54:43;3.30;;;1.23;;
24206;SDS011;12351;52.284;9.160;2022-09-03T19:57:34;5.60;;;1.63;;
24206;SDS011;12351;52.284;9.160;2022-09-03T20:00:23;2.43;;;1.40;;
24206;SDS011;12351;52.284;9.160;2022-09-03T20:03:12;3.20;;;1.20;;
24206;SDS011;12351;52.284;9.160;2022-09-03T20:06:01;2.57;;;1.10;;
24206;SDS011;12351;52.284;9.160;2022-09-03T20:08:52;1.60;;;1.27;;
24206;SDS011;12351;52.284;9.160;2022-09-03T20:11:43;3.40;;;1.47;;
24206;SDS011;12351;52.284;9.160;2022-09-03T20:14:33;2.73;;;1.37;;
24206;SDS011;12351;52.284;9.160;2022-09-03T20:25:56;5.53;;;1.37;;
24206;SDS011;12351;52.284;9.160;2022-09-03T20:48:27;3.87;;;1.40;;
24206;SDS011;12351;52.284;9.160;2022-09-03T20:51:15;3.60;;;1.67;;
24206;SDS011;12351;52.284;9.160;2022-09-03T20:56:59;2.13;;;1.60;;
24206;SDS011;12351;52.284;9.160;2022-09-03T21:05:21;4.30;;;1.80;;
24206;SDS011;12351;52.284;9.160;2022-09-03T21:24:51;3.10;;;1.67;;
24206;SDS011;12351;52.284;9.160;2022-09-03T21:27:42;6.23;;;2.23;;
24206;SDS011;12351;52.284;9.160;2022-09-03T21:30:28;4.47;;;2.00;;
24206;SDS011;12351;52.284;9.160;2022-09-03T21:33:19;3.23;;;1.50;;
24206;SDS011;12351;52.284;9.160;2022-09-03T21:36:09;3.27;;;1.80;;
24206;SDS011;12351;52.284;9.160;2022-09-03T21:39:02;3.60;;;1.80;;
24206;SDS011;12351;52.284;9.160;2022-09-03T21:41:52;7.20;;;3.93;;
24206;SDS011;12351;52.284;9.160;2022-09-03T21:47:28;4.60;;;2.30;;
24206;SDS011;12351;52.284;9.160;2022-09-03T21:50:20;4.03;;;1.77;;
24206;SDS011;12351;52.284;9.160;2022-09-03T22:04:14;2.90;;;1.80;;
24206;SDS011;12351;52.284;9.160;2022-09-03T22:07:06;4.17;;;1.73;;
24206;SDS011;12351;52.284;9.160;2022-09-03T22:09:56;5.83;;;1.80;;
24206;SDS011;12351;52.284;9.160;2022-09-03T22:15:35;5.33;;;1.60;;
24206;SDS011;12351;52.284;9.160;2022-09-03T22:18:25;2.47;;;1.90;;
24206;SDS011;12351;52.284;9.160;2022-09-03T22:29:39;4.70;;;1.90;;
24206;SDS011;12351;52.284;9.160;2022-09-03T22:43:21;4.47;;;1.87;;
24206;SDS011;12351;52.284;9.160;2022-09-03T22:48:59;5.57;;;2.00;;
24206;SDS011;12351;52.284;9.160;2022-09-03T22:54:32;4.33;;;2.10;;
24206;SDS011;12351;52.284;9.160;2022-09-03T22:57:20;3.67;;;1.90;;
24206;SDS011;12351;52.284;9.160;2022-09-03T23:00:10;6.53;;;1.90;;
24206;SDS011;12351;52.284;9.160;2022-09-03T23:03:00;5.20;;;1.80;;
24206;SDS011;12351;52.284;9.160;2022-09-03T23:05:49;5.47;;;2.10;;
24206;SDS011;12351;52.284;9.160;2022-09-03T23:08:38;2.50;;;1.80;;
24206;SDS011;12351;52.284;9.160;2022-09-03T23:11:30;3.43;;;1.93;;
24206;SDS011;12351;52.284;9.160;2022-09-03T23:14:20;3.57;;;2.10;;
24206;SDS011;12351;52.284;9.160;2022-09-03T23:17:07;6.17;;;2.30;;
24206;SDS011;12351;52.284;9.160;2022-09-03T23:19:58;5.43;;;1.80;;
24206;SDS011;12351;52.284;9.160;2022-09-03T23:25:39;6.07;;;2.00;;
24206;SDS011;12351;52.284;9.160;2022-09-03T23:34:07;3.83;;;2.10;;
